createdAt,value
2019-03-13T00:00:44.056Z,52.98
2019-03-13T00:02:45.654Z,53.25
2019-03-13T00:04:47.251Z,53.08
2019-03-13T00:06:48.855Z,53.34
2019-03-13T00:08:50.494Z,53.16
2019-03-13T00:10:52.103Z,53.42
2019-03-13T00:12:53.715Z,53.42
2019-03-13T00:14:55.324Z,53.47
2019-03-13T00:16:56.922Z,53.34
2019-03-13T00:18:58.545Z,53.51
2019-03-13T00:21:00.141Z,53.31
2019-03-13T00:23:01.734Z,53.60
2019-03-13T00:25:03.329Z,53.58
2019-03-13T00:27:04.927Z,53.64
2019-03-13T00:29:06.536Z,53.50
2019-03-13T00:31:08.162Z,53.69
2019-03-13T00:33:09.768Z,53.78
2019-03-13T00:35:11.366Z,53.87
2019-03-13T00:37:12.968Z,54.05
2019-03-13T00:39:14.719Z,54.31
2019-03-13T00:41:16.318Z,54.25
2019-03-13T00:43:17.903Z,54.32
2019-03-13T00:45:19.497Z,54.70
2019-03-13T00:47:21.090Z,54.56
2019-03-13T00:49:22.749Z,54.80
2019-03-13T00:51:24.364Z,54.98
2019-03-13T00:53:25.968Z,54.96
2019-03-13T00:55:27.562Z,54.87
2019-03-13T00:57:29.224Z,55.30
2019-03-13T00:59:30.836Z,55.45
2019-03-13T01:01:33.247Z,55.30
2019-03-13T01:03:34.832Z,55.36
2019-03-13T01:05:38.987Z,55.53
2019-03-13T01:07:40.586Z,55.64
2019-03-13T01:09:42.187Z,55.33
2019-03-13T01:11:43.814Z,55.61
2019-03-13T01:13:45.424Z,55.35
2019-03-13T01:15:47.069Z,55.47
2019-03-13T01:17:48.655Z,55.62
2019-03-13T01:19:50.264Z,55.78
2019-03-13T01:21:51.893Z,55.89
2019-03-13T01:23:53.487Z,56.09
2019-03-13T01:25:55.108Z,55.91
2019-03-13T01:27:56.702Z,56.01
2019-03-13T01:29:58.308Z,56.05
2019-03-13T01:32:00.402Z,55.93
2019-03-13T01:34:07.656Z,56.09
2019-03-13T01:36:09.250Z,56.33
2019-03-13T01:38:10.855Z,56.18
2019-03-13T01:40:12.490Z,55.99
2019-03-13T01:42:14.085Z,56.71
2019-03-13T01:44:15.730Z,56.16
2019-03-13T01:46:17.333Z,56.05
2019-03-13T01:48:18.926Z,56.01
2019-03-13T01:50:20.536Z,55.94
2019-03-13T01:52:22.161Z,56.17
2019-03-13T01:54:23.753Z,56.09
2019-03-13T01:56:25.349Z,56.00
2019-03-13T01:58:26.968Z,55.78
2019-03-13T02:00:28.553Z,55.79
2019-03-13T02:02:30.164Z,55.86
2019-03-13T02:04:31.781Z,55.75
2019-03-13T02:06:33.383Z,55.60
2019-03-13T02:08:34.977Z,55.61
2019-03-13T02:10:36.569Z,55.55
2019-03-13T02:12:38.173Z,55.53
2019-03-13T02:14:39.820Z,55.58
2019-03-13T02:16:41.498Z,55.47
2019-03-13T02:18:43.097Z,55.60
2019-03-13T02:20:44.689Z,55.60
2019-03-13T02:22:46.293Z,55.55
2019-03-13T02:24:47.918Z,55.54
2019-03-13T02:26:49.523Z,55.66
2019-03-13T02:28:51.150Z,55.71
2019-03-13T02:30:52.746Z,55.80
2019-03-13T02:32:54.363Z,55.93
2019-03-13T02:34:55.991Z,56.10
2019-03-13T02:36:57.595Z,56.14
2019-03-13T02:38:59.231Z,56.10
2019-03-13T02:41:00.838Z,55.96
2019-03-13T02:43:02.471Z,56.05
2019-03-13T02:45:04.106Z,55.98
2019-03-13T02:47:05.708Z,55.83
2019-03-13T02:49:07.316Z,55.76
2019-03-13T02:51:08.901Z,55.74
2019-03-13T02:53:10.498Z,55.74
2019-03-13T02:55:12.209Z,55.95
2019-03-13T02:57:13.809Z,55.83
2019-03-13T02:59:15.434Z,55.88
2019-03-13T03:01:22.592Z,55.88
2019-03-13T03:03:31.731Z,55.70
2019-03-13T03:05:33.336Z,55.94
2019-03-13T03:07:34.971Z,56.08
2019-03-13T03:09:36.577Z,55.94
2019-03-13T03:11:38.209Z,55.94
2019-03-13T03:13:39.816Z,55.78
2019-03-13T03:15:41.420Z,56.08
2019-03-13T03:17:43.064Z,56.24
2019-03-13T03:19:44.675Z,56.26
2019-03-13T03:21:46.312Z,55.93
2019-03-13T03:23:47.921Z,56.13
2019-03-13T03:25:49.526Z,56.16
2019-03-13T03:27:51.131Z,56.31
2019-03-13T03:29:52.740Z,56.55
2019-03-13T03:31:54.348Z,56.73
2019-03-13T03:33:55.961Z,56.65
2019-03-13T03:35:57.585Z,56.56
2019-03-13T03:37:59.196Z,56.71
2019-03-13T03:40:00.794Z,56.54
2019-03-13T03:42:02.391Z,56.80
2019-03-13T03:44:04.018Z,56.73
2019-03-13T03:46:05.627Z,56.62
2019-03-13T03:48:07.269Z,56.45
2019-03-13T03:50:08.869Z,56.43
2019-03-13T03:52:10.480Z,56.61
2019-03-13T03:54:12.115Z,56.63
2019-03-13T03:56:14.256Z,56.55
2019-03-13T03:58:15.900Z,56.51
2019-03-13T04:00:17.668Z,56.42
2019-03-13T04:02:19.192Z,56.47
2019-03-13T04:04:20.804Z,56.52
2019-03-13T04:06:22.402Z,56.47
2019-03-13T04:08:23.988Z,56.36
2019-03-13T04:10:25.596Z,56.49
2019-03-13T04:12:27.216Z,56.52
2019-03-13T04:14:28.868Z,56.70
2019-03-13T04:16:30.474Z,56.88
2019-03-13T04:18:32.073Z,56.78
2019-03-13T04:20:33.683Z,56.67
2019-03-13T04:22:35.293Z,56.68
2019-03-13T04:24:36.933Z,56.50
2019-03-13T04:26:38.530Z,56.35
2019-03-13T04:28:40.126Z,56.34
2019-03-13T04:30:41.727Z,56.43
2019-03-13T04:32:43.346Z,56.16
2019-03-13T04:34:45.164Z,56.21
2019-03-13T04:36:46.748Z,56.10
2019-03-13T04:38:48.356Z,56.17
2019-03-13T04:40:49.954Z,55.96
2019-03-13T04:42:51.664Z,55.93
2019-03-13T04:44:53.199Z,55.77
2019-03-13T04:46:54.795Z,55.92
2019-03-13T04:48:56.385Z,55.83
2019-03-13T04:50:58.017Z,55.79
2019-03-13T04:52:59.635Z,55.81
2019-03-13T04:55:01.259Z,55.64
2019-03-13T04:57:02.888Z,55.81
2019-03-13T04:59:04.502Z,55.86
2019-03-13T05:01:06.128Z,56.02
2019-03-13T05:03:07.722Z,56.00
2019-03-13T05:05:09.321Z,55.84
2019-03-13T05:07:10.941Z,56.06
2019-03-13T05:09:12.548Z,56.58
2019-03-13T05:11:14.164Z,56.56
2019-03-13T05:13:15.788Z,56.84
2019-03-13T05:15:17.395Z,56.87
2019-03-13T05:17:18.997Z,56.93
2019-03-13T05:19:20.593Z,57.27
2019-03-13T05:21:22.236Z,57.30
2019-03-13T05:23:23.848Z,57.49
2019-03-13T05:25:25.493Z,57.34
2019-03-13T05:27:27.099Z,57.62
2019-03-13T05:29:28.703Z,57.67
2019-03-13T05:31:30.317Z,57.61
2019-03-13T05:33:31.913Z,57.75
2019-03-13T05:35:33.522Z,57.64
2019-03-13T05:37:35.150Z,57.47
2019-03-13T05:39:36.745Z,57.15
2019-03-13T05:41:38.356Z,57.05
2019-03-13T05:43:39.967Z,56.92
2019-03-13T05:45:41.567Z,57.10
2019-03-13T05:47:43.199Z,56.80
2019-03-13T05:49:44.798Z,56.78
2019-03-13T05:51:46.448Z,56.74
2019-03-13T05:53:48.045Z,56.35
2019-03-13T05:55:49.638Z,56.44
2019-03-13T05:57:51.280Z,55.93
2019-03-13T05:59:52.900Z,55.79
2019-03-13T06:01:54.498Z,56.00
2019-03-13T06:03:56.108Z,55.83
2019-03-13T06:05:57.696Z,55.51
2019-03-13T06:07:59.299Z,55.57
2019-03-13T06:10:00.947Z,55.37
2019-03-13T06:12:02.548Z,55.56
2019-03-13T06:14:04.172Z,55.40
2019-03-13T06:16:05.786Z,55.71
2019-03-13T06:18:09.764Z,55.59
2019-03-13T06:20:10.576Z,55.75
2019-03-13T06:22:10.720Z,55.93
2019-03-13T06:24:12.313Z,55.59
2019-03-13T06:26:13.905Z,55.65
2019-03-13T06:28:15.516Z,55.76
2019-03-13T06:30:17.109Z,55.65
2019-03-13T06:32:18.702Z,55.74
2019-03-13T06:34:20.316Z,55.81
2019-03-13T06:36:21.928Z,55.78
2019-03-13T06:38:23.526Z,55.82
2019-03-13T06:40:25.143Z,55.94
2019-03-13T06:42:26.738Z,55.97
2019-03-13T06:44:28.333Z,56.03
2019-03-13T06:46:29.941Z,56.04
2019-03-13T06:48:31.537Z,56.13
2019-03-13T06:50:33.136Z,56.12
2019-03-13T06:52:34.752Z,56.29
2019-03-13T06:54:36.357Z,56.33
2019-03-13T06:56:38.001Z,56.33
2019-03-13T06:58:40.200Z,56.33
2019-03-13T07:00:47.271Z,56.31
2019-03-13T07:02:52.415Z,56.60
2019-03-13T07:04:57.793Z,56.82
2019-03-13T07:07:14.258Z,56.61
2019-03-13T07:09:33.685Z,56.56
2019-03-13T07:11:35.329Z,56.49
2019-03-13T07:13:52.735Z,56.51
2019-03-13T07:15:57.038Z,56.56
2019-03-13T07:18:13.515Z,56.18
2019-03-13T07:20:15.138Z,56.11
2019-03-13T07:22:36.515Z,56.02
2019-03-13T07:24:39.033Z,56.01
2019-03-13T07:26:41.113Z,55.97
2019-03-13T07:28:47.267Z,55.79
2019-03-13T07:30:53.322Z,55.66
2019-03-13T07:32:56.591Z,55.56
2019-03-13T07:35:00.580Z,55.58
2019-03-13T07:37:04.220Z,55.54
2019-03-13T07:39:17.529Z,55.71
2019-03-13T07:41:19.137Z,55.56
2019-03-13T07:43:35.613Z,55.81
2019-03-13T07:45:54.866Z,55.60
2019-03-13T07:48:00.171Z,55.73
2019-03-13T07:50:03.385Z,55.74
2019-03-13T07:52:20.776Z,55.73
2019-03-13T07:54:25.979Z,55.89
2019-03-13T07:56:46.324Z,55.60
2019-03-13T07:58:52.545Z,56.05
2019-03-13T08:00:54.137Z,56.31
2019-03-13T08:02:58.578Z,56.15
2019-03-13T08:05:06.647Z,56.25
2019-03-13T08:07:16.798Z,55.93
2019-03-13T08:09:34.027Z,55.95
2019-03-13T08:11:53.406Z,55.56
2019-03-13T08:13:58.794Z,55.26
2019-03-13T08:16:03.961Z,55.19
2019-03-13T08:18:26.476Z,55.03
2019-03-13T08:20:30.592Z,46.13
2019-03-13T08:22:34.975Z,43.27
2019-03-13T08:24:48.431Z,48.02
2019-03-13T08:27:03.888Z,47.37
2019-03-13T08:29:06.928Z,47.19
2019-03-13T08:31:10.207Z,47.38
2019-03-13T08:33:27.598Z,47.97
2019-03-13T08:35:31.998Z,48.27
2019-03-13T08:37:34.336Z,48.81
2019-03-13T08:39:36.679Z,48.64
2019-03-13T08:41:58.067Z,48.74
2019-03-13T08:44:08.086Z,48.82
2019-03-13T08:46:10.291Z,49.04
2019-03-13T08:48:26.769Z,48.98
2019-03-13T08:50:34.073Z,49.23
2019-03-13T08:52:51.275Z,49.32
2019-03-13T08:54:58.601Z,49.51
2019-03-13T08:57:02.675Z,49.40
2019-03-13T08:59:06.979Z,49.58
2019-03-13T09:01:24.253Z,49.94
2019-03-13T09:03:29.492Z,49.99
2019-03-13T09:05:41.747Z,50.19
2019-03-13T09:07:53.257Z,50.37
2019-03-13T09:09:58.305Z,50.27
2019-03-13T09:12:18.661Z,49.85
2019-03-13T09:14:38.013Z,50.27
2019-03-13T09:16:39.620Z,50.62
2019-03-13T09:18:43.742Z,50.78
2019-03-13T09:20:51.245Z,50.86
2019-03-13T09:22:54.380Z,50.49
2019-03-13T09:24:56.635Z,50.17
2019-03-13T09:26:58.240Z,49.95
2019-03-13T09:29:01.541Z,49.77
2019-03-13T09:31:06.077Z,49.73
2019-03-13T09:33:10.604Z,49.74
2019-03-13T09:35:12.220Z,49.70
2019-03-13T09:37:32.581Z,49.74
2019-03-13T09:39:39.907Z,49.75
2019-03-13T09:41:58.254Z,49.77
2019-03-13T09:44:00.138Z,49.91
2019-03-13T09:46:04.259Z,50.43
2019-03-13T09:48:06.793Z,50.39
2019-03-13T09:50:28.107Z,50.48
2019-03-13T09:52:32.568Z,50.87
2019-03-13T09:54:49.938Z,50.94
2019-03-13T09:57:02.316Z,51.08
2019-03-13T09:59:04.788Z,51.16
2019-03-13T10:01:13.010Z,50.77
2019-03-13T10:03:15.358Z,50.86
2019-03-13T10:05:33.968Z,51.08
2019-03-13T10:07:42.056Z,51.14
2019-03-13T10:10:02.583Z,51.17
2019-03-13T10:12:18.997Z,51.13
2019-03-13T10:14:35.477Z,51.05
2019-03-13T10:16:53.771Z,50.90
2019-03-13T10:18:58.268Z,50.75
2019-03-13T10:21:00.868Z,50.68
2019-03-13T10:23:08.242Z,50.45
2019-03-13T10:25:21.500Z,50.05
2019-03-13T10:27:23.862Z,49.98
2019-03-13T10:29:45.300Z,50.00
2019-03-13T10:31:48.294Z,49.27
2019-03-13T10:33:51.322Z,48.80
2019-03-13T10:36:10.912Z,48.67
2019-03-13T10:38:29.240Z,49.14
2019-03-13T10:40:38.511Z,49.43
2019-03-13T10:42:45.997Z,49.64
2019-03-13T10:44:47.603Z,49.76
2019-03-13T10:47:10.264Z,49.85
2019-03-13T10:49:11.920Z,50.00
2019-03-13T10:51:22.158Z,50.09
2019-03-13T10:53:36.664Z,50.22
2019-03-13T10:55:39.188Z,50.31
2019-03-13T10:57:56.487Z,50.29
2019-03-13T11:00:00.648Z,50.33
2019-03-13T11:02:02.256Z,50.40
2019-03-13T11:04:06.517Z,50.49
2019-03-13T11:06:14.055Z,50.55
2019-03-13T11:08:28.370Z,50.57
2019-03-13T11:10:30.016Z,50.61
2019-03-13T11:12:34.478Z,50.70
2019-03-13T11:14:51.918Z,50.77
2019-03-13T11:16:55.161Z,50.35
2019-03-13T11:19:11.696Z,49.72
2019-03-13T11:21:15.905Z,49.76
2019-03-13T11:23:17.513Z,49.90
2019-03-13T11:25:35.817Z,49.57
2019-03-13T11:27:38.360Z,49.92
2019-03-13T11:29:52.657Z,50.22
2019-03-13T11:31:56.940Z,50.32
2019-03-13T11:34:02.027Z,50.13
2019-03-13T11:36:18.506Z,49.83
2019-03-13T11:38:24.020Z,49.55
2019-03-13T11:40:28.338Z,49.97
2019-03-13T11:42:32.574Z,50.29
2019-03-13T11:44:36.843Z,50.46
2019-03-13T11:46:42.961Z,50.45
2019-03-13T11:48:45.335Z,50.49
2019-03-13T11:51:05.836Z,50.63
2019-03-13T11:53:11.406Z,50.75
2019-03-13T11:55:33.577Z,50.80
2019-03-13T11:57:45.924Z,50.84
2019-03-13T11:59:52.104Z,50.87
2019-03-13T12:01:55.122Z,50.79
2019-03-13T12:04:16.496Z,50.79
2019-03-13T12:06:23.725Z,50.73
2019-03-13T12:08:44.984Z,50.72
2019-03-13T12:11:05.507Z,50.75
2019-03-13T12:15:38.578Z,50.78
2019-03-13T12:17:55.987Z,50.77
2019-03-13T12:20:01.269Z,50.72
2019-03-13T12:22:02.991Z,50.66
2019-03-13T12:24:21.294Z,50.69
2019-03-13T12:26:38.605Z,50.68
2019-03-13T12:28:41.593Z,50.59
2019-03-13T12:30:59.023Z,50.48
2019-03-13T12:33:12.308Z,50.46
2019-03-13T12:35:28.845Z,50.49
2019-03-13T12:37:33.908Z,50.45
2019-03-13T12:39:36.239Z,50.42
2019-03-13T12:41:55.704Z,50.44
2019-03-13T12:44:01.046Z,50.42
2019-03-13T12:46:03.827Z,50.38
2019-03-13T12:48:21.095Z,50.32
2019-03-13T12:50:23.433Z,50.39
2019-03-13T12:52:27.540Z,50.41
2019-03-13T12:54:54.218Z,50.41
2019-03-13T12:57:12.750Z,50.42
2019-03-13T12:59:18.564Z,50.42
2019-03-13T13:01:25.932Z,50.36
2019-03-13T13:03:27.544Z,50.40
2019-03-13T13:05:44.021Z,50.35
2019-03-13T13:08:04.512Z,50.34
2019-03-13T13:10:21.856Z,50.30
2019-03-13T13:12:38.348Z,50.25
2019-03-13T13:14:52.280Z,50.26
2019-03-13T13:16:57.467Z,50.22
2019-03-13T13:18:59.065Z,50.21
2019-03-13T13:21:00.721Z,50.28
2019-03-13T13:23:02.368Z,50.32
2019-03-13T13:25:03.966Z,50.32
2019-03-13T13:27:05.576Z,50.35
2019-03-13T13:29:07.320Z,50.36
2019-03-13T13:31:09.017Z,50.21
2019-03-13T13:33:10.622Z,50.18
2019-03-13T13:35:12.234Z,50.09
2019-03-13T13:37:13.843Z,49.95
2019-03-13T13:39:15.569Z,49.98
2019-03-13T13:41:17.166Z,50.08
2019-03-13T13:43:18.781Z,50.07
2019-03-13T13:45:20.622Z,50.31
2019-03-13T13:47:22.217Z,50.23
2019-03-13T13:49:23.808Z,50.54
2019-03-13T13:51:25.420Z,50.62
2019-03-13T13:53:27.075Z,50.54
2019-03-13T13:55:28.674Z,50.55
2019-03-13T13:57:30.274Z,50.74
2019-03-13T13:59:31.876Z,50.68
2019-03-13T14:01:33.496Z,50.76
2019-03-13T14:03:35.389Z,50.79
2019-03-13T14:05:37.012Z,50.59
2019-03-13T14:07:38.673Z,50.45
2019-03-13T14:09:40.332Z,50.53
2019-03-13T14:11:41.982Z,50.71
2019-03-13T14:13:43.652Z,50.91
2019-03-13T14:15:45.302Z,51.03
2019-03-13T14:17:46.913Z,51.23
2019-03-13T14:19:48.504Z,51.39
2019-03-13T14:21:50.088Z,51.53
2019-03-13T14:23:51.692Z,51.44
2019-03-13T14:25:53.289Z,51.62
2019-03-13T14:27:54.930Z,51.72
2019-03-13T14:29:56.530Z,51.85
2019-03-13T14:31:58.134Z,51.64
2019-03-13T14:33:59.810Z,51.76
2019-03-13T14:36:01.406Z,51.92
2019-03-13T14:38:03.042Z,51.96
2019-03-13T14:40:04.652Z,51.93
2019-03-13T14:42:06.252Z,51.98
2019-03-13T14:44:07.885Z,51.99
2019-03-13T14:46:09.717Z,52.23
2019-03-13T14:48:11.422Z,51.97
2019-03-13T14:50:13.636Z,52.16
2019-03-13T14:52:15.266Z,51.95
2019-03-13T14:54:16.863Z,51.69
2019-03-13T14:56:18.463Z,51.26
2019-03-13T14:58:20.097Z,51.12
2019-03-13T15:00:21.716Z,50.54
2019-03-13T15:02:23.329Z,50.38
2019-03-13T15:04:24.945Z,51.05
2019-03-13T15:06:26.551Z,51.03
2019-03-13T15:08:28.212Z,50.43
2019-03-13T15:10:29.834Z,50.35
2019-03-13T15:12:31.439Z,50.06
2019-03-13T15:14:33.043Z,50.07
2019-03-13T15:16:34.638Z,49.96
2019-03-13T15:18:36.273Z,49.89
2019-03-13T15:20:37.878Z,49.93
2019-03-13T15:22:39.849Z,49.73
2019-03-13T15:24:41.458Z,49.98
2019-03-13T15:26:43.062Z,49.76
2019-03-13T15:28:44.696Z,49.79
2019-03-13T15:30:46.290Z,49.65
2019-03-13T15:32:47.924Z,49.13
2019-03-13T15:34:49.522Z,48.76
2019-03-13T15:36:51.137Z,48.91
2019-03-13T15:38:52.756Z,49.28
2019-03-13T15:40:54.362Z,49.50
2019-03-13T15:42:55.985Z,49.65
2019-03-13T15:44:57.600Z,49.48
2019-03-13T15:46:59.194Z,49.74
2019-03-13T15:49:00.795Z,49.48
2019-03-13T15:51:02.408Z,50.05
2019-03-13T15:53:04.078Z,49.60
2019-03-13T15:55:05.708Z,49.80
2019-03-13T15:57:07.311Z,49.86
2019-03-13T15:59:08.904Z,49.62
2019-03-13T16:01:10.498Z,49.71
2019-03-13T16:03:12.123Z,50.10
2019-03-13T16:05:13.738Z,49.61
2019-03-13T16:07:15.348Z,48.98
2019-03-13T16:09:17.718Z,50.12
2019-03-13T16:11:19.308Z,50.63
2019-03-13T16:13:20.948Z,50.64
2019-03-13T16:15:22.558Z,50.88
2019-03-13T16:17:24.168Z,50.90
2019-03-13T16:19:25.780Z,50.92
2019-03-13T16:21:27.392Z,50.81
2019-03-13T16:23:29.023Z,50.08
2019-03-13T16:25:30.634Z,49.58
2019-03-13T16:27:32.233Z,49.52
2019-03-13T16:29:33.828Z,49.43
2019-03-13T16:31:35.422Z,49.69
2019-03-13T16:33:37.105Z,50.07
2019-03-13T16:35:38.722Z,49.32
2019-03-13T16:37:40.333Z,49.28
2019-03-13T16:39:41.985Z,49.57
2019-03-13T16:41:43.625Z,49.66
2019-03-13T16:43:45.217Z,48.96
2019-03-13T16:45:46.828Z,49.39
2019-03-13T16:47:48.463Z,49.17
2019-03-13T16:49:50.109Z,49.24
2019-03-13T16:51:51.718Z,49.50
2019-03-13T16:53:53.317Z,49.25
2019-03-13T16:55:54.945Z,49.04
2019-03-13T16:57:56.593Z,49.89
2019-03-13T17:00:00.759Z,50.09
2019-03-13T17:02:00.019Z,50.34
2019-03-13T17:04:01.604Z,49.67
2019-03-13T17:06:07.087Z,50.27
2019-03-13T17:08:09.355Z,50.37
2019-03-13T17:10:10.950Z,49.46
2019-03-13T17:12:13.223Z,50.03
2019-03-13T17:14:14.823Z,49.88
2019-03-13T17:18:30.448Z,49.35
2019-03-13T17:20:32.078Z,46.70
2019-03-13T17:22:33.674Z,47.81
2019-03-13T17:24:35.325Z,47.44
2019-03-13T17:26:36.927Z,48.08
2019-03-13T17:28:38.576Z,48.36
2019-03-13T17:30:40.196Z,48.62
2019-03-13T17:32:41.814Z,48.96
2019-03-13T17:34:43.433Z,48.87
2019-03-13T17:36:45.030Z,49.04
2019-03-13T17:38:46.616Z,49.13
2019-03-13T17:40:48.256Z,49.05
2019-03-13T17:42:49.854Z,49.01
2019-03-13T17:44:51.455Z,49.46
2019-03-13T17:46:53.064Z,49.85
2019-03-13T17:48:54.666Z,49.87
2019-03-13T17:50:56.280Z,50.87
2019-03-13T17:52:57.919Z,49.21
2019-03-13T17:54:59.505Z,49.59
2019-03-13T17:57:01.112Z,49.51
2019-03-13T17:59:02.724Z,49.86
2019-03-13T18:01:04.364Z,49.98
2019-03-13T18:03:05.976Z,49.96
2019-03-13T18:05:07.583Z,50.12
2019-03-13T18:07:09.177Z,50.21
2019-03-13T18:09:10.789Z,50.05
2019-03-13T18:11:12.422Z,49.74
2019-03-13T18:13:14.012Z,49.94
2019-03-13T18:15:15.606Z,50.30
2019-03-13T18:17:17.243Z,49.88
2019-03-13T18:19:18.847Z,49.19
2019-03-13T18:21:20.455Z,49.85
2019-03-13T18:23:22.089Z,50.00
2019-03-13T18:25:23.714Z,50.06
2019-03-13T18:27:25.310Z,49.50
2019-03-13T18:29:26.901Z,50.00
2019-03-13T18:31:28.502Z,50.12
2019-03-13T18:33:30.142Z,50.34
2019-03-13T18:35:31.745Z,50.12
2019-03-13T18:37:33.355Z,50.50
2019-03-13T18:39:34.978Z,50.61
2019-03-13T18:41:36.578Z,50.56
2019-03-13T18:43:38.210Z,50.81
2019-03-13T18:45:39.796Z,50.91
2019-03-13T18:47:41.418Z,51.12
2019-03-13T18:49:43.045Z,51.07
2019-03-13T18:51:44.648Z,51.00
2019-03-13T18:53:46.268Z,51.24
2019-03-13T18:55:47.897Z,50.76
2019-03-13T18:57:50.801Z,51.01
2019-03-13T18:59:51.175Z,51.08
2019-03-13T19:01:52.767Z,51.29
2019-03-13T19:03:54.375Z,51.27
2019-03-13T19:05:56.071Z,51.52
2019-03-13T19:07:57.641Z,51.27
2019-03-13T19:09:59.221Z,51.41
2019-03-13T19:12:00.815Z,51.33
2019-03-13T19:14:04.036Z,51.54
2019-03-13T19:16:05.652Z,51.47
2019-03-13T19:18:07.249Z,51.40
2019-03-13T19:20:11.773Z,51.35
2019-03-13T19:22:10.502Z,51.32
2019-03-13T19:24:12.086Z,51.65
2019-03-13T19:26:13.688Z,51.58
2019-03-13T19:28:15.308Z,51.32
2019-03-13T19:30:16.925Z,51.17
2019-03-13T19:32:18.521Z,51.46
2019-03-13T19:34:20.110Z,51.61
2019-03-13T19:36:21.720Z,51.45
2019-03-13T19:38:23.322Z,51.18
2019-03-13T19:40:24.961Z,51.12
2019-03-13T19:42:26.564Z,51.69
2019-03-13T19:44:28.206Z,50.56
2019-03-13T19:46:32.090Z,50.14
2019-03-13T19:48:32.827Z,50.36
2019-03-13T19:50:34.470Z,50.22
2019-03-13T19:52:36.130Z,50.24
2019-03-13T19:54:37.771Z,50.26
2019-03-13T19:56:39.754Z,50.54
2019-03-13T19:58:41.359Z,50.40
2019-03-13T20:00:43.004Z,50.49
2019-03-13T20:02:44.592Z,50.50
2019-03-13T20:04:47.505Z,50.33
2019-03-13T20:06:47.850Z,50.92
2019-03-13T20:08:49.798Z,50.49
2019-03-13T20:10:51.493Z,50.63
2019-03-13T20:12:53.151Z,50.77
2019-03-13T20:14:54.750Z,50.00
2019-03-13T20:16:56.341Z,50.47
2019-03-13T20:18:57.953Z,50.42
2019-03-13T20:20:59.566Z,50.31
2019-03-13T20:23:01.220Z,50.35
2019-03-13T20:25:02.862Z,50.40
2019-03-13T20:27:04.501Z,50.31
2019-03-13T20:29:06.116Z,50.31
2019-03-13T20:31:07.720Z,50.36
2019-03-13T20:33:09.469Z,50.53
2019-03-13T20:35:11.010Z,50.71
2019-03-13T20:37:12.620Z,51.04
2019-03-13T20:39:14.214Z,50.68
2019-03-13T20:41:15.827Z,50.59
2019-03-13T20:43:17.434Z,50.96
2019-03-13T20:45:19.070Z,50.68
2019-03-13T20:47:20.662Z,50.50
2019-03-13T20:49:22.254Z,50.78
2019-03-13T20:51:23.847Z,50.73
2019-03-13T20:53:25.446Z,49.89
2019-03-13T20:55:27.060Z,50.08
2019-03-13T20:57:28.645Z,50.80
2019-03-13T20:59:32.573Z,50.51
2019-03-13T21:01:31.952Z,50.28
2019-03-13T21:03:33.546Z,50.02
2019-03-13T21:05:35.155Z,49.70
2019-03-13T21:07:36.753Z,50.47
2019-03-13T21:09:38.378Z,50.82
2019-03-13T21:11:40.009Z,50.66
2019-03-13T21:13:41.616Z,50.67
2019-03-13T21:15:43.915Z,49.94
2019-03-13T21:17:44.914Z,51.06
2019-03-13T21:19:46.525Z,50.94
2019-03-13T21:21:48.181Z,51.76
2019-03-13T21:23:49.792Z,50.86
2019-03-13T21:25:51.386Z,51.19
2019-03-13T21:27:53.027Z,50.89
2019-03-13T21:29:54.631Z,50.73
2019-03-13T21:31:58.699Z,50.89
2019-03-13T21:34:00.296Z,51.12
2019-03-13T21:36:01.894Z,50.92
2019-03-13T21:38:03.535Z,50.99
2019-03-13T21:40:05.134Z,50.96
2019-03-13T21:42:06.769Z,51.65
2019-03-13T21:44:08.367Z,51.45
2019-03-13T21:46:09.967Z,51.19
2019-03-13T21:48:11.611Z,51.47
2019-03-13T21:50:13.213Z,51.84
2019-03-13T21:52:14.819Z,51.00
2019-03-13T21:54:16.407Z,50.85
2019-03-13T21:56:18.011Z,50.86
2019-03-13T21:58:19.689Z,51.09
2019-03-13T22:00:21.292Z,51.56
2019-03-13T22:02:32.210Z,51.41
2019-03-13T22:04:24.807Z,51.40
2019-03-13T22:06:29.125Z,51.30
2019-03-13T22:08:27.838Z,51.22
2019-03-13T22:10:29.447Z,50.51
2019-03-13T22:12:31.061Z,50.76
2019-03-13T22:14:32.648Z,51.21
2019-03-13T22:16:34.242Z,52.10
2019-03-13T22:18:35.864Z,51.56
2019-03-13T22:20:37.475Z,48.73
2019-03-13T22:22:39.088Z,41.53
2019-03-13T22:24:40.698Z,41.38
2019-03-13T22:26:42.371Z,45.62
2019-03-13T22:28:43.971Z,45.74
2019-03-13T22:30:45.584Z,46.23
2019-03-13T22:32:47.185Z,46.74
2019-03-13T22:34:48.778Z,47.33
2019-03-13T22:36:50.373Z,47.77
2019-03-13T22:38:51.985Z,48.25
2019-03-13T22:40:53.596Z,48.57
2019-03-13T22:42:55.190Z,48.91
2019-03-13T22:44:56.786Z,49.17
2019-03-13T22:46:58.395Z,49.41
2019-03-13T22:48:59.993Z,49.54
2019-03-13T22:51:02.518Z,49.65
2019-03-13T22:53:03.304Z,49.87
2019-03-13T22:55:04.938Z,50.04
2019-03-13T22:57:06.589Z,50.27
2019-03-13T22:59:08.190Z,50.38
2019-03-13T23:01:09.786Z,50.48
2019-03-13T23:03:11.431Z,50.55
2019-03-13T23:05:13.025Z,50.68
2019-03-13T23:07:14.649Z,50.78
2019-03-13T23:09:16.302Z,50.86
2019-03-13T23:11:19.597Z,51.04
2019-03-13T23:13:21.201Z,51.29
2019-03-13T23:15:22.817Z,51.31
2019-03-13T23:17:24.436Z,51.36
2019-03-13T23:19:26.049Z,51.42
2019-03-13T23:21:27.699Z,51.51
2019-03-13T23:23:29.445Z,51.68
2019-03-13T23:25:31.041Z,51.72
2019-03-13T23:27:32.638Z,51.77
2019-03-13T23:29:34.243Z,51.91
2019-03-13T23:31:35.867Z,51.85
2019-03-13T23:33:37.464Z,51.91
2019-03-13T23:35:39.065Z,52.06
2019-03-13T23:37:40.702Z,52.03
2019-03-13T23:39:42.310Z,52.12
2019-03-13T23:41:43.953Z,52.20
2019-03-13T23:43:45.564Z,52.34
2019-03-13T23:45:47.176Z,52.63
2019-03-13T23:47:48.820Z,52.72
2019-03-13T23:49:50.414Z,52.60
2019-03-13T23:51:52.064Z,52.76
2019-03-13T23:53:53.681Z,52.83
2019-03-13T23:55:55.299Z,52.81
2019-03-13T23:57:56.951Z,52.95
